Time;durP1;ratioP1;P1;durP2;ratioP2;P2;SDS_P1;SDS_P2;PMS_P1;PMS_P2;Temp;Humidity;BMP_temperature;BMP_pressure;BME280_temperature;BME280_humidity;BME280_pressure;Samples;Min_cycle;Max_cycle;Signal;HPM_P1;HPM_P2
2021/01/10 00:01:24;;;;;;;56.40;26.30;;;;;;;-1.74;83.88;99238.76;250803;1148;22945;-78
2021/01/10 00:06:27;;;;;;;53.10;24.77;;;;;;;-1.80;83.42;99226.42;250749;1153;22996;-77
2021/01/10 00:11:29;;;;;;;65.30;28.43;;;;;;;-1.85;84.16;99236.70;250452;1151;23420;-76
2021/01/10 00:16:39;;;;;;;58.50;25.60;;;;;;;-1.90;83.86;99234.67;250491;1148;23043;-75
2021/01/10 00:21:41;;;;;;;61.92;25.75;;;;;;;-1.93;84.32;99235.06;250381;1150;22904;-77
2021/01/10 00:26:44;;;;;;;56.77;25.83;;;;;;;-2.00;84.19;99236.85;250364;1153;22945;-77
2021/01/10 00:31:46;;;;;;;61.67;25.47;;;;;;;-2.05;84.15;99246.31;250122;1151;23122;-75
2021/01/10 00:36:48;;;;;;;58.53;25.07;;;;;;;-2.18;84.24;99252.28;250214;1155;22967;-76
2021/01/10 00:41:51;;;;;;;55.57;23.33;;;;;;;-2.27;83.99;99254.27;250385;1148;22974;-76
2021/01/10 00:46:53;;;;;;;62.43;25.03;;;;;;;-2.34;84.14;99258.66;250282;1148;22956;-77
2021/01/10 00:51:55;;;;;;;64.20;26.10;;;;;;;-2.46;84.16;99261.02;250125;1147;22967;-76
2021/01/10 00:56:59;;;;;;;67.25;28.25;;;;;;;-2.51;84.57;99263.39;250104;1148;23021;-77
2021/01/10 01:02:02;;;;;;;57.23;27.60;;;;;;;-2.43;85.49;99268.50;250253;1148;25960;-78
2021/01/10 01:07:05;;;;;;;60.43;28.13;;;;;;;-2.36;84.65;99279.05;250224;1153;22995;-76
2021/01/10 01:12:08;;;;;;;59.40;27.87;;;;;;;-2.33;85.59;99282.09;249802;1148;27202;-77
2021/01/10 01:17:10;;;;;;;64.37;29.47;;;;;;;-2.38;84.55;99281.04;249903;1148;23016;-74
2021/01/10 01:22:13;;;;;;;65.50;28.85;;;;;;;-2.47;84.17;99275.13;249966;1148;26615;-77
2021/01/10 01:27:16;;;;;;;67.75;30.00;;;;;;;-2.57;84.33;99272.84;249920;1148;26404;-74
2021/01/10 01:32:18;;;;;;;58.23;26.27;;;;;;;-2.68;84.39;99270.73;249553;1148;22967;-76
2021/01/10 01:37:21;;;;;;;72.50;31.10;;;;;;;-2.81;84.60;99274.87;249610;1155;23025;-77
2021/01/10 01:42:24;;;;;;;75.90;34.00;;;;;;;-2.89;84.23;99271.57;249940;1152;22976;-77
2021/01/10 01:47:27;;;;;;;67.70;32.20;;;;;;;-2.95;84.32;99273.94;249828;1152;22947;-75
2021/01/10 01:52:29;;;;;;;68.73;29.37;;;;;;;-2.99;85.05;99271.89;249753;1148;22963;-76
2021/01/10 01:57:31;;;;;;;66.50;30.87;;;;;;;-3.00;85.20;99275.50;249966;1153;22967;-76
2021/01/10 02:02:33;;;;;;;68.40;29.67;;;;;;;-3.00;85.15;99271.05;249775;1148;22948;-77
2021/01/10 02:07:58;;;;;;;69.70;31.63;;;;;;;-3.02;85.72;99273.07;249723;1152;22961;-75
2021/01/10 02:13:08;;;;;;;72.40;31.10;;;;;;;-3.05;85.78;99265.59;249793;1151;23031;-77
2021/01/10 02:18:12;;;;;;;75.50;33.97;;;;;;;-3.07;85.33;99264.14;249845;1152;22945;-76
2021/01/10 02:23:26;;;;;;;73.40;33.25;;;;;;;-3.09;85.27;99256.47;249588;1148;22951;-74
2021/01/10 02:28:31;;;;;;;90.30;38.60;;;;;;;-3.10;85.90;99265.33;250084;1148;23127;-75
2021/01/10 02:33:50;;;;;;;82.07;34.43;;;;;;;-3.18;85.52;99262.83;249619;1151;23042;-75
2021/01/10 02:39:06;;;;;;;88.70;35.03;;;;;;;-3.23;85.81;99257.33;249644;1155;22942;-76
2021/01/10 02:44:36;;;;;;;81.23;34.73;;;;;;;-3.27;85.99;99262.14;249672;1148;26729;-73
2021/01/10 02:49:39;;;;;;;90.10;37.43;;;;;;;-3.26;85.97;99255.88;249678;1155;22942;-75
2021/01/10 02:54:41;;;;;;;76.95;36.70;;;;;;;-3.28;86.19;99263.13;249991;1148;22942;-77
2021/01/10 02:59:47;;;;;;;94.65;37.55;;;;;;;-3.29;86.26;99258.88;249708;1148;23000;-76
2021/01/10 03:04:50;;;;;;;86.60;37.65;;;;;;;-3.31;85.90;99256.45;249580;1148;22952;-74
2021/01/10 03:09:53;;;;;;;97.50;39.00;;;;;;;-3.30;85.98;99258.08;249934;1148;22998;-76
2021/01/10 03:15:00;;;;;;;93.90;38.80;;;;;;;-3.37;85.58;99265.06;250063;1148;22948;-75
2021/01/10 03:20:06;;;;;;;96.45;39.85;;;;;;;-3.38;86.43;99263.44;249924;1147;22988;-75
2021/01/10 03:25:10;;;;;;;88.15;37.00;;;;;;;-3.35;86.04;99267.50;249979;1148;22967;-75
2021/01/10 03:30:15;;;;;;;86.07;36.13;;;;;;;-3.38;86.29;99267.88;249898;1148;23039;-75
2021/01/10 03:35:18;;;;;;;93.40;37.85;;;;;;;-3.42;86.00;99275.28;250118;1147;22964;-75
2021/01/10 03:40:20;;;;;;;87.73;37.23;;;;;;;-3.52;85.33;99277.39;250070;1153;22995;-75
2021/01/10 03:45:22;;;;;;;91.55;40.00;;;;;;;-3.55;85.70;99275.12;249934;1148;22974;-73
2021/01/10 03:50:24;;;;;;;107.77;46.03;;;;;;;-3.48;85.91;99271.59;249818;1153;22952;-74
2021/01/10 03:55:27;;;;;;;116.17;46.87;;;;;;;-3.33;86.56;99276.80;249513;1151;23416;-75
2021/01/10 04:00:29;;;;;;;100.73;44.23;;;;;;;-3.15;86.76;99265.90;249809;1148;22938;-75
2021/01/10 04:05:31;;;;;;;109.77;49.00;;;;;;;-3.04;86.00;99261.95;250091;1148;22936;-73
2021/01/10 04:10:34;;;;;;;118.77;53.47;;;;;;;-2.97;85.96;99260.19;249987;1148;22942;-76
2021/01/10 04:15:37;;;;;;;104.10;45.55;;;;;;;-2.90;86.03;99259.45;249958;1147;23053;-76
2021/01/10 04:20:39;;;;;;;98.17;43.07;;;;;;;-2.86;86.44;99261.50;249743;1148;22945;-75
2021/01/10 04:25:41;;;;;;;98.67;43.60;;;;;;;-2.81;86.66;99258.30;249772;1148;23024;-76
2021/01/10 04:30:43;;;;;;;95.33;44.37;;;;;;;-2.80;85.83;99263.39;249787;1148;22949;-75
2021/01/10 04:35:45;;;;;;;106.75;40.70;;;;;;;-2.80;86.33;99265.18;249848;1148;23112;-75
2021/01/10 04:40:47;;;;;;;91.63;38.93;;;;;;;-2.75;85.98;99265.44;249998;1152;23106;-75
2021/01/10 04:45:51;;;;;;;91.17;37.67;;;;;;;-2.71;86.46;99261.44;250290;1148;23315;-75
2021/01/10 04:50:54;;;;;;;74.60;30.83;;;;;;;-2.67;86.22;99265.30;250015;1148;22936;-74
2021/01/10 04:55:58;;;;;;;81.20;33.93;;;;;;;-2.79;85.60;99275.47;249782;1148;23074;-75
2021/01/10 05:01:01;;;;;;;98.80;40.25;;;;;;;-2.89;85.79;99271.57;249500;1148;23019;-74
2021/01/10 05:06:10;;;;;;;124.03;49.97;;;;;;;-2.96;86.17;99261.02;249921;1152;22998;-75
2021/01/10 05:11:13;;;;;;;107.60;45.73;;;;;;;-3.02;86.17;99270.45;249998;1148;26401;-75
2021/01/10 05:16:21;;;;;;;102.90;43.20;;;;;;;-3.12;85.62;99283.03;249844;1148;23041;-74
2021/01/10 05:21:25;;;;;;;85.17;36.27;;;;;;;-3.16;86.05;99281.78;249629;1150;22998;-76
2021/01/10 05:26:35;;;;;;;90.50;38.20;;;;;;;-3.13;86.44;99286.67;249867;1148;22970;-74
2021/01/10 05:31:45;;;;;;;85.03;34.90;;;;;;;-3.11;86.71;99289.91;250046;1148;22945;-77
2021/01/10 05:36:47;;;;;;;85.23;34.93;;;;;;;-3.11;86.48;99284.66;249715;1148;22967;-74
2021/01/10 05:42:05;;;;;;;83.50;35.80;;;;;;;-3.13;86.47;99278.81;249761;1148;22961;-76
2021/01/10 05:47:11;;;;;;;72.25;32.70;;;;;;;-3.13;86.75;99286.67;249987;1147;26114;-76
2021/01/10 05:52:15;;;;;;;77.70;33.47;;;;;;;-3.18;86.44;99283.80;249829;1148;22998;-76
2021/01/10 05:57:18;;;;;;;74.90;33.10;;;;;;;-3.19;86.12;99290.02;249865;1153;25206;-75
2021/01/10 06:02:27;;;;;;;73.70;32.63;;;;;;;-3.26;86.18;99295.19;249716;1148;23228;-73
2021/01/10 06:07:33;;;;;;;84.30;36.93;;;;;;;-3.32;85.68;99288.88;249744;1148;27695;-75
2021/01/10 06:12:36;;;;;;;84.13;36.10;;;;;;;-3.43;85.18;99307.70;249908;1148;22973;-76
2021/01/10 06:17:49;;;;;;;96.63;39.80;;;;;;;-3.45;85.67;99301.84;249569;1150;22942;-74
2021/01/10 06:22:54;;;;;;;86.70;38.10;;;;;;;-3.46;85.35;99305.45;249679;1156;23012;-75
2021/01/10 06:28:13;;;;;;;95.27;39.80;;;;;;;-3.45;85.91;99310.51;249689;1147;22942;-75
2021/01/10 06:33:20;;;;;;;89.95;40.03;;;;;;;-3.40;85.66;99317.00;250000;1153;22963;-77
2021/01/10 06:38:23;;;;;;;90.05;36.90;;;;;;;-3.30;86.31;99328.03;249875;1148;24624;-76
2021/01/10 06:43:27;;;;;;;59.90;29.57;;;;;;;-3.17;86.09;99327.35;249783;1152;22946;-75
2021/01/10 06:48:29;;;;;;;65.85;29.05;;;;;;;-3.16;86.16;99327.17;249854;1150;22991;-76
2021/01/10 06:53:31;;;;;;;67.95;32.75;;;;;;;-3.09;86.35;99337.73;249970;1148;23151;-75
2021/01/10 06:58:33;;;;;;;62.70;29.43;;;;;;;-3.01;86.29;99336.78;249874;1148;22912;-75
2021/01/10 07:03:58;;;;;;;61.00;26.80;;;;;;;-2.91;86.32;99334.66;250078;1148;22908;-75
2021/01/10 07:09:00;;;;;;;62.93;28.67;;;;;;;-3.00;85.78;99331.35;249910;1148;22946;-73
2021/01/10 07:14:06;;;;;;;67.15;31.65;;;;;;;-3.03;85.32;99331.73;249853;1148;22942;-78
2021/01/10 07:19:08;;;;;;;64.40;30.10;;;;;;;-3.06;85.64;99334.73;249882;1148;23100;-75
2021/01/10 07:24:13;;;;;;;76.07;30.47;;;;;;;-3.14;85.81;99334.84;250000;1148;22943;-75
2021/01/10 07:29:31;;;;;;;70.07;33.27;;;;;;;-3.15;85.82;99339.28;249763;1148;22945;-73
2021/01/10 07:34:44;;;;;;;83.80;39.50;;;;;;;-3.13;85.64;99349.58;249696;1148;27823;-76
2021/01/10 07:39:53;;;;;;;84.00;38.27;;;;;;;-3.00;86.05;99341.84;249718;1148;23106;-75
2021/01/10 07:44:57;;;;;;;97.27;44.60;;;;;;;-2.84;86.73;99343.42;249877;1153;23039;-75
2021/01/10 07:50:02;;;;;;;105.97;43.97;;;;;;;-2.70;86.54;99351.41;250016;1148;23028;-75
2021/01/10 07:55:04;;;;;;;89.70;39.23;;;;;;;-2.53;86.11;99351.95;249779;1148;22967;-74
2021/01/10 08:00:16;;;;;;;97.47;42.70;;;;;;;-1.83;88.35;99346.80;249934;1148;23098;-76
2021/01/10 08:05:22;;;;;;;83.63;36.80;;;;;;;-1.44;86.57;99361.16;250064;1152;22967;-76
2021/01/10 08:10:27;;;;;;;98.45;41.35;;;;;;;-1.34;86.05;99360.80;249813;1148;23083;-75
2021/01/10 08:15:29;;;;;;;102.80;45.75;;;;;;;-1.24;85.05;99369.94;249939;1147;22964;-74
2021/01/10 08:20:32;;;;;;;81.27;36.60;;;;;;;-1.15;85.34;99361.89;249975;1148;22999;-78
2021/01/10 08:25:34;;;;;;;106.10;46.40;;;;;;;-1.06;85.40;99376.49;249754;1152;22994;-81
2021/01/10 08:30:37;;;;;;;102.10;44.57;;;;;;;-0.82;85.71;99376.97;249722;1148;23087;-76
2021/01/10 08:35:39;;;;;;;98.70;43.60;;;;;;;-0.60;85.95;99380.22;249791;1147;22977;-77
2021/01/10 08:40:41;;;;;;;92.27;43.47;;;;;;;-0.24;85.73;99387.77;250241;1148;23125;-78
2021/01/10 08:45:44;;;;;;;78.50;35.80;;;;;;;-0.09;84.36;99399.92;250515;1148;23021;-76
2021/01/10 08:50:46;;;;;;;71.80;32.10;;;;;;;-0.18;83.17;99401.95;250417;1151;22959;-80
2021/01/10 08:55:48;;;;;;;101.13;44.87;;;;;;;-0.33;82.77;99393.44;250499;1148;22952;-78
2021/01/10 09:00:50;;;;;;;85.80;42.85;;;;;;;-0.35;83.01;99399.70;250742;1147;22983;-83
2021/01/10 09:05:54;;;;;;;98.45;45.45;;;;;;;-0.29;84.11;99392.02;251153;1147;23074;-79
2021/01/10 09:11:05;;;;;;;88.47;40.07;;;;;;;-0.20;84.08;99394.25;250658;1151;23822;-80
2021/01/10 09:16:11;;;;;;;77.40;38.40;;;;;;;-0.14;83.11;99402.34;250604;1149;23045;-77
2021/01/10 09:21:18;;;;;;;81.83;38.33;;;;;;;-0.14;83.24;99404.97;250504;1150;22964;-87
2021/01/10 09:26:28;;;;;;;76.30;37.27;;;;;;;-0.10;83.49;99401.75;250451;1148;23364;-80
2021/01/10 09:31:47;;;;;;;80.07;38.33;;;;;;;-0.02;82.47;99398.08;250340;1148;22949;-77
2021/01/10 09:36:59;;;;;;;79.90;38.53;;;;;;;-0.04;83.39;99389.59;250590;1152;23021;-79
2021/01/10 09:42:01;;;;;;;85.10;42.03;;;;;;;-0.03;83.11;99392.02;250526;1147;23038;-84
2021/01/10 09:47:04;;;;;;;74.63;35.10;;;;;;;0.07;83.23;99396.88;250514;1150;22954;-77
2021/01/10 09:52:12;;;;;;;76.37;35.70;;;;;;;0.19;82.48;99386.51;250797;1147;22911;-77
2021/01/10 09:57:17;;;;;;;73.20;34.63;;;;;;;0.46;83.19;99389.09;250931;1152;22961;-79
2021/01/10 10:02:23;;;;;;;64.13;31.67;;;;;;;0.70;83.18;99384.98;251363;1147;22957;-78
2021/01/10 10:07:33;;;;;;;68.93;31.00;;;;;;;0.89;81.85;99377.19;250580;1147;25970;-79
2021/01/10 10:12:35;;;;;;;70.77;34.23;;;;;;;1.26;83.17;99369.47;250701;1148;23513;-79
2021/01/10 10:17:38;;;;;;;53.27;27.20;;;;;;;1.50;82.07;99373.98;250695;1153;23072;-80
2021/01/10 10:22:41;;;;;;;48.57;24.40;;;;;;;1.57;81.41;99379.23;250720;1147;22973;-79
2021/01/10 10:27:57;;;;;;;45.20;23.13;;;;;;;1.60;80.13;99362.95;250861;1153;22932;-79
2021/01/10 10:33:01;;;;;;;40.30;21.70;;;;;;;1.68;79.88;99357.40;250500;1148;22936;-80
2021/01/10 10:38:04;;;;;;;48.27;24.97;;;;;;;1.79;80.12;99361.19;250578;1151;23045;-79
2021/01/10 10:43:06;;;;;;;45.40;22.85;;;;;;;1.86;78.34;99350.53;250387;1150;22967;-80
2021/01/10 10:48:09;;;;;;;45.30;24.95;;;;;;;1.93;78.78;99353.13;250861;1151;23130;-80
2021/01/10 10:53:11;;;;;;;37.40;20.37;;;;;;;2.15;78.61;99338.47;250656;1148;22926;-79
2021/01/10 10:58:13;;;;;;;27.40;14.87;;;;;;;2.22;77.63;99339.23;250449;1148;22951;-78
2021/01/10 11:03:15;;;;;;;34.40;18.07;;;;;;;2.19;77.18;99328.28;250586;1148;22936;-79
2021/01/10 11:08:17;;;;;;;39.37;20.47;;;;;;;2.05;76.32;99331.05;250825;1150;22942;-79
2021/01/10 11:13:19;;;;;;;55.07;28.97;;;;;;;2.10;77.16;99325.13;250418;1148;22936;-78
2021/01/10 11:18:21;;;;;;;40.40;20.85;;;;;;;2.14;76.15;99321.02;250736;1147;22980;-79
2021/01/10 11:23:23;;;;;;;42.13;22.07;;;;;;;2.25;76.66;99313.38;250468;1148;22885;-79
2021/01/10 11:28:25;;;;;;;33.70;18.77;;;;;;;2.28;76.49;99313.75;250563;1148;23109;-78
2021/01/10 11:33:28;;;;;;;30.40;16.67;;;;;;;2.49;77.05;99312.48;250643;1148;22935;-78
2021/01/10 11:38:30;;;;;;;28.87;16.13;;;;;;;2.54;76.39;99312.61;250604;1148;22953;-83
2021/01/10 11:43:33;;;;;;;36.75;17.70;;;;;;;2.67;76.00;99308.19;250439;1148;22943;-80
2021/01/10 11:48:36;;;;;;;45.53;23.53;;;;;;;2.76;76.19;99316.63;250430;1147;22907;-79
2021/01/10 11:53:39;;;;;;;33.13;17.43;;;;;;;2.86;75.95;99311.62;250668;1148;22940;-79
2021/01/10 11:58:41;;;;;;;30.10;15.63;;;;;;;2.93;74.58;99314.98;250681;1152;22989;-80
2021/01/10 12:03:43;;;;;;;35.60;18.53;;;;;;;2.78;74.24;99312.72;250758;1147;22935;-80
2021/01/10 12:08:46;;;;;;;38.73;18.80;;;;;;;2.64;73.78;99316.58;250698;1147;26127;-81
2021/01/10 12:13:49;;;;;;;39.27;19.63;;;;;;;2.49;73.60;99315.13;250482;1148;22949;-79
2021/01/10 12:18:52;;;;;;;44.37;22.57;;;;;;;2.28;72.83;99316.39;250588;1150;22958;-79
2021/01/10 12:23:54;;;;;;;46.60;23.70;;;;;;;2.14;72.40;99318.38;250656;1148;22935;-77
2021/01/10 12:28:57;;;;;;;49.70;23.00;;;;;;;2.02;72.09;99320.91;250503;1147;23488;-82
2021/01/10 12:33:59;;;;;;;52.27;25.57;;;;;;;1.89;73.33;99313.13;250562;1148;23003;-80
2021/01/10 12:39:01;;;;;;;48.03;22.80;;;;;;;1.83;72.47;99319.27;250626;1147;23175;-79
2021/01/10 12:44:03;;;;;;;45.30;22.90;;;;;;;1.90;73.39;99308.64;250480;1147;22878;-78
2021/01/10 12:49:06;;;;;;;54.83;25.50;;;;;;;1.95;73.04;99308.81;250607;1148;22938;-80
2021/01/10 12:54:08;;;;;;;51.77;26.47;;;;;;;2.00;73.11;99306.30;250521;1148;23079;-81
2021/01/10 12:59:11;;;;;;;37.80;19.25;;;;;;;2.02;73.73;99305.06;250478;1148;23339;-80
2021/01/10 13:04:13;;;;;;;34.60;16.70;;;;;;;1.97;73.52;99310.21;250485;1148;22977;-79
2021/01/10 13:09:15;;;;;;;32.03;15.90;;;;;;;1.91;74.17;99310.27;250377;1153;22963;-79
2021/01/10 13:14:17;;;;;;;29.10;15.93;;;;;;;1.87;73.82;99305.43;250624;1148;22926;-80
2021/01/10 13:19:24;;;;;;;33.35;17.45;;;;;;;1.84;74.42;99305.84;250624;1152;22926;-79
2021/01/10 13:24:27;;;;;;;27.47;14.27;;;;;;;1.93;74.77;99306.39;250736;1148;22989;-79
2021/01/10 13:29:30;;;;;;;19.90;10.85;;;;;;;1.98;73.94;99311.81;250717;1148;23061;-80
2021/01/10 13:34:33;;;;;;;19.57;10.80;;;;;;;1.97;73.66;99310.21;250528;1148;22975;-79
2021/01/10 13:39:37;;;;;;;19.90;10.97;;;;;;;1.95;73.33;99322.02;250425;1152;22958;-79
2021/01/10 13:44:39;;;;;;;21.67;10.53;;;;;;;1.92;73.39;99314.50;250738;1148;22967;-79
2021/01/10 13:49:41;;;;;;;17.63;10.07;;;;;;;1.86;73.27;99318.83;250473;1148;23374;-77
2021/01/10 13:54:43;;;;;;;19.70;10.65;;;;;;;1.79;73.26;99313.63;250513;1148;23020;-78
2021/01/10 14:00:04;;;;;;;17.23;9.27;;;;;;;1.72;73.58;99320.78;250479;1148;23053;-80
2021/01/10 14:05:09;;;;;;;16.13;8.37;;;;;;;1.67;73.74;99313.52;250644;1146;26382;-80
2021/01/10 14:10:12;;;;;;;17.40;9.23;;;;;;;1.63;73.53;99319.45;250584;1148;22941;-78
2021/01/10 14:15:16;;;;;;;19.53;10.80;;;;;;;1.58;73.91;99316.64;250612;1148;23040;-79
2021/01/10 14:20:18;;;;;;;16.80;9.70;;;;;;;1.52;73.77;99313.83;250491;1152;22891;-79
2021/01/10 14:25:20;;;;;;;16.33;9.40;;;;;;;1.44;73.17;99306.20;250443;1148;22960;-81
2021/01/10 14:30:24;;;;;;;22.37;10.33;;;;;;;1.40;73.56;99315.58;250347;1150;22953;-78
2021/01/10 14:35:28;;;;;;;25.97;10.53;;;;;;;1.24;73.24;99313.45;250403;1148;24345;-80
2021/01/10 14:40:31;;;;;;;18.05;10.20;;;;;;;1.12;74.26;99321.23;250258;1148;22914;-80
2021/01/10 14:45:33;;;;;;;19.10;10.53;;;;;;;1.05;74.53;99318.66;250710;1147;22945;-80
2021/01/10 14:50:35;;;;;;;21.23;10.43;;;;;;;1.04;74.33;99317.03;250643;1152;22974;-80
2021/01/10 14:55:37;;;;;;;19.90;9.60;;;;;;;0.99;74.09;99317.67;250530;1147;23382;-79
2021/01/10 15:00:40;;;;;;;19.97;11.10;;;;;;;0.97;73.83;99313.63;250902;1149;23093;-78
2021/01/10 15:05:42;;;;;;;19.73;10.57;;;;;;;0.96;73.69;99319.92;250591;1150;22964;-80
2021/01/10 15:10:46;;;;;;;20.80;10.20;;;;;;;0.92;74.54;99326.64;250842;1148;23037;-78
2021/01/10 15:15:48;;;;;;;17.43;9.90;;;;;;;0.85;74.18;99329.30;250973;1148;22941;-80
2021/01/10 15:20:51;;;;;;;15.53;8.80;;;;;;;0.82;73.43;99327.09;250647;1152;23090;-80
2021/01/10 15:25:53;;;;;;;18.53;9.80;;;;;;;0.80;74.86;99329.14;250758;1148;22932;-80
2021/01/10 15:30:55;;;;;;;21.07;10.33;;;;;;;0.79;74.26;99341.50;250548;1148;27519;-80
2021/01/10 15:35:59;;;;;;;21.77;12.17;;;;;;;0.76;74.60;99341.93;250582;1147;23116;-80
2021/01/10 15:41:01;;;;;;;29.07;14.50;;;;;;;0.74;74.40;99343.16;250357;1148;23405;-78
2021/01/10 15:46:08;;;;;;;36.93;16.93;;;;;;;0.73;74.62;99338.89;250218;1148;23355;-79
2021/01/10 15:51:11;;;;;;;32.43;15.00;;;;;;;0.73;74.91;99339.72;250498;1148;24465;-78
2021/01/10 15:56:14;;;;;;;29.70;14.77;;;;;;;0.70;73.91;99337.51;250708;1148;23025;-78
2021/01/10 16:01:16;;;;;;;28.40;13.93;;;;;;;0.68;74.32;99342.97;250757;1148;22979;-79
2021/01/10 16:06:18;;;;;;;28.00;12.80;;;;;;;0.62;74.66;99337.74;250557;1148;22939;-80
2021/01/10 16:11:21;;;;;;;26.70;12.57;;;;;;;0.53;74.89;99333.71;250586;1150;22936;-79
2021/01/10 16:16:24;;;;;;;30.33;13.87;;;;;;;0.45;74.93;99332.93;250642;1147;23003;-78
2021/01/10 16:21:26;;;;;;;27.67;13.57;;;;;;;0.40;74.66;99339.84;250785;1153;22995;-78
2021/01/10 16:26:28;;;;;;;33.17;15.30;;;;;;;0.37;75.27;99334.99;251006;1148;22968;-78
2021/01/10 16:31:47;;;;;;;29.67;14.97;;;;;;;0.33;75.81;99318.77;250748;1149;22947;-80
2021/01/10 16:36:50;;;;;;;29.70;14.90;;;;;;;0.25;75.81;99317.19;250752;1147;22957;-80
2021/01/10 16:41:52;;;;;;;26.53;14.27;;;;;;;0.19;76.00;99319.84;250608;1152;22938;-82
2021/01/10 16:46:56;;;;;;;28.00;14.47;;;;;;;0.06;76.31;99323.31;250692;1147;26520;-79
2021/01/10 16:51:58;;;;;;;49.00;22.50;;;;;;;-0.06;75.96;99320.48;250413;1148;22960;-79
2021/01/10 16:57:01;;;;;;;35.50;18.47;;;;;;;-0.11;76.64;99325.55;250550;1148;22923;-79
2021/01/10 17:02:03;;;;;;;40.25;19.10;;;;;;;-0.15;76.99;99329.60;250362;1148;22932;-79
2021/01/10 17:07:07;;;;;;;36.67;16.60;;;;;;;-0.18;77.68;99336.91;250719;1148;23087;-80
2021/01/10 17:12:09;;;;;;;37.00;18.33;;;;;;;-0.22;76.94;99333.06;250572;1155;22951;-79
2021/01/10 17:17:12;;;;;;;41.87;20.03;;;;;;;-0.26;77.67;99331.85;250676;1153;23106;-80
2021/01/10 17:22:16;;;;;;;41.27;19.43;;;;;;;-0.31;77.78;99336.91;250677;1147;22982;-80
2021/01/10 17:27:18;;;;;;;49.20;22.10;;;;;;;-0.38;77.91;99333.47;250392;1148;22952;-81
2021/01/10 17:32:20;;;;;;;37.17;18.83;;;;;;;-0.55;76.70;99340.97;250681;1150;23038;-79
2021/01/10 17:37:23;;;;;;;53.10;24.07;;;;;;;-0.69;77.76;99340.14;250358;1155;22936;-81
2021/01/10 17:42:45;;;;;;;62.47;28.33;;;;;;;-0.78;78.03;99336.09;250452;1148;22947;-79
2021/01/10 17:47:48;;;;;;;67.55;29.65;;;;;;;-0.77;78.90;99335.06;250460;1147;22936;-80
2021/01/10 17:52:50;;;;;;;73.70;33.97;;;;;;;-0.65;78.60;99335.30;251108;1148;23080;-80
2021/01/10 17:57:53;;;;;;;90.37;35.10;;;;;;;-0.60;78.56;99341.58;250562;1148;23073;-78
2021/01/10 18:02:55;;;;;;;91.67;37.60;;;;;;;-0.65;79.31;99340.56;250742;1148;22954;-79
2021/01/10 18:07:57;;;;;;;90.53;38.33;;;;;;;-0.64;78.14;99350.88;250416;1154;23034;-79
2021/01/10 18:13:00;;;;;;;83.83;36.57;;;;;;;-0.58;78.61;99352.70;250299;1148;22883;-80
2021/01/10 18:18:02;;;;;;;98.10;41.53;;;;;;;-0.55;78.95;99351.48;250380;1148;23099;-79
2021/01/10 18:23:05;;;;;;;107.40;43.60;;;;;;;-0.52;79.59;99351.08;250655;1148;22981;-80
2021/01/10 18:28:07;;;;;;;102.33;43.30;;;;;;;-0.50;78.79;99351.70;250536;1148;22898;-80
2021/01/10 18:33:09;;;;;;;59.40;29.37;;;;;;;-0.41;79.40;99354.94;250359;1147;22938;-80
2021/01/10 18:38:12;;;;;;;90.25;37.85;;;;;;;-0.33;80.00;99353.95;250724;1148;23410;-80
2021/01/10 18:43:14;;;;;;;86.33;37.33;;;;;;;-0.35;78.97;99352.31;250609;1148;23026;-80
2021/01/10 18:48:17;;;;;;;105.80;44.00;;;;;;;-0.30;79.57;99350.91;250616;1150;22950;-79
2021/01/10 18:53:19;;;;;;;120.70;50.47;;;;;;;-0.29;80.20;99350.70;250481;1148;22960;-79
2021/01/10 18:58:22;;;;;;;105.83;45.03;;;;;;;-0.32;79.60;99343.21;251640;1148;22967;-80
2021/01/10 19:03:24;;;;;;;113.93;48.77;;;;;;;-0.35;79.68;99336.52;250602;1149;23024;-82
2021/01/10 19:08:26;;;;;;;117.17;49.70;;;;;;;-0.42;79.30;99329.63;250553;1148;22964;-80
2021/01/10 19:13:28;;;;;;;123.27;51.57;;;;;;;-0.50;79.92;99324.55;250381;1148;22953;-80
2021/01/10 19:18:30;;;;;;;113.13;44.33;;;;;;;-0.59;80.24;99318.69;250528;1148;23102;-79
2021/01/10 19:23:32;;;;;;;115.53;49.93;;;;;;;-0.66;79.96;99316.05;250359;1151;22966;-80
2021/01/10 19:28:35;;;;;;;119.93;53.43;;;;;;;-0.75;79.81;99314.64;250787;1152;22937;-78
2021/01/10 19:33:38;;;;;;;123.30;50.27;;;;;;;-0.83;80.74;99307.73;251055;1148;24341;-79
2021/01/10 19:38:40;;;;;;;121.77;50.70;;;;;;;-0.87;80.45;99302.09;250300;1150;22923;-80
2021/01/10 19:43:44;;;;;;;118.50;49.43;;;;;;;-0.90;80.79;99307.72;250327;1152;22936;-79
2021/01/10 19:48:48;;;;;;;110.70;48.07;;;;;;;-0.83;80.96;99301.67;250189;1147;23103;-79
2021/01/10 19:53:53;;;;;;;117.50;50.07;;;;;;;-0.79;80.24;99306.33;250852;1148;22964;-79
2021/01/10 19:58:58;;;;;;;116.73;48.80;;;;;;;-0.70;80.27;99307.77;250756;1147;22926;-80
2021/01/10 20:04:02;;;;;;;108.50;47.13;;;;;;;-0.62;80.54;99316.47;250649;1151;23041;-81
2021/01/10 20:09:05;;;;;;;120.67;49.70;;;;;;;-0.58;80.51;99313.22;250517;1152;22995;-80
2021/01/10 20:14:08;;;;;;;110.70;47.80;;;;;;;-0.63;80.25;99309.58;250508;1151;22929;-78
2021/01/10 20:24:31;;;;;;;99.95;44.90;;;;;;;-0.70;80.11;99313.02;250665;1147;25886;-79
2021/01/10 20:29:34;;;;;;;101.30;42.80;;;;;;;-0.76;80.22;99311.19;250521;1148;22921;-78
2021/01/10 20:34:39;;;;;;;156.15;68.20;;;;;;;-0.76;80.93;99318.27;250844;1148;22946;-78
2021/01/10 20:39:41;;;;;;;102.20;45.20;;;;;;;-0.76;80.55;99308.55;250642;1148;23023;-78
2021/01/10 20:45:05;;;;;;;106.73;46.53;;;;;;;-0.75;81.46;99304.92;250411;1147;23003;-79
2021/01/10 20:50:08;;;;;;;100.80;43.47;;;;;;;-0.75;81.63;99302.28;251040;1152;23026;-79
2021/01/10 20:55:10;;;;;;;116.90;46.87;;;;;;;-0.78;81.20;99307.95;251221;1150;22926;-78
2021/01/10 21:00:14;;;;;;;139.03;54.40;;;;;;;-0.77;81.07;99308.75;250624;1152;22964;-79
2021/01/10 21:05:18;;;;;;;138.90;58.60;;;;;;;-0.81;80.53;99299.64;250835;1148;22906;-79
2021/01/10 21:10:20;;;;;;;123.10;50.37;;;;;;;-0.80;80.66;99306.53;250423;1147;23618;-79
2021/01/10 21:15:22;;;;;;;138.80;59.50;;;;;;;-0.75;81.51;99312.81;251094;1148;23013;-77
2021/01/10 21:20:24;;;;;;;150.77;65.23;;;;;;;-0.74;81.01;99303.08;250482;1148;22956;-79
2021/01/10 21:25:26;;;;;;;167.77;71.00;;;;;;;-0.75;81.56;99314.64;250613;1148;23025;-77
2021/01/10 21:30:28;;;;;;;157.97;66.83;;;;;;;-0.84;81.27;99305.31;250509;1151;22946;-77
2021/01/10 21:35:31;;;;;;;202.17;80.40;;;;;;;-1.00;80.63;99309.94;250320;1151;22977;-79
2021/01/10 21:40:33;;;;;;;172.97;76.67;;;;;;;-1.14;80.64;99298.58;250937;1148;23030;-79
2021/01/10 21:45:41;;;;;;;177.70;72.23;;;;;;;-1.22;81.17;99294.33;250760;1148;23058;-79
2021/01/10 21:50:42;;;;;;;172.40;71.20;;;;;;;-1.30;81.18;99291.05;250368;1148;23079;-79
2021/01/10 21:55:45;;;;;;;152.83;62.90;;;;;;;-1.39;81.26;99295.68;250292;1148;22944;-78
2021/01/10 22:00:47;;;;;;;154.80;65.03;;;;;;;-1.43;81.33;99292.66;249956;1152;22938;-79
2021/01/10 22:05:50;;;;;;;150.93;60.10;;;;;;;-1.43;81.68;99289.20;250174;1147;22971;-79
2021/01/10 22:10:53;;;;;;;149.83;61.33;;;;;;;-1.42;82.00;99294.25;250371;1153;22942;-78
2021/01/10 22:15:57;;;;;;;172.50;66.93;;;;;;;-1.40;81.93;99296.68;250300;1148;22945;-79
2021/01/10 22:21:05;;;;;;;158.53;66.07;;;;;;;-1.38;81.96;99297.31;250305;1148;22978;-78
2021/01/10 22:26:08;;;;;;;152.33;65.10;;;;;;;-1.26;82.02;99300.16;250210;1148;27215;-78
2021/01/10 22:31:16;;;;;;;129.30;50.40;;;;;;;-1.21;82.00;99303.81;250599;1148;22943;-78
2021/01/10 22:36:19;;;;;;;137.93;55.53;;;;;;;-1.24;82.41;99304.22;250531;1148;22967;-79
2021/01/10 22:41:21;;;;;;;213.80;83.77;;;;;;;-1.26;81.59;99303.62;250348;1152;22978;-78
2021/01/10 22:46:25;;;;;;;228.43;91.70;;;;;;;-1.26;81.76;99303.62;250460;1148;23061;-79
2021/01/10 22:51:27;;;;;;;258.37;99.77;;;;;;;-1.29;82.48;99298.73;250471;1147;22932;-79
2021/01/10 22:56:30;;;;;;;296.33;121.47;;;;;;;-1.32;81.65;99300.97;250525;1148;22939;-79
2021/01/10 23:01:34;;;;;;;326.30;121.30;;;;;;;-1.33;82.13;99302.80;250562;1148;22932;-78
2021/01/10 23:06:38;;;;;;;318.40;117.87;;;;;;;-1.37;82.46;99304.20;250618;1153;22975;-78